TimeEST,TemperatureF,Dew PointF,Humidity,Sea Level PressureIn,VisibilityMPH,Wind Direction,Wind SpeedMPH,Gust SpeedMPH,PrecipitationIn,Events,Conditions,WindDirDegrees,DateUTC
12:15 AM,35.6,28.4,75,29.87,10.0,Calm,Calm,-,N/A,,Overcast,0,2013-03-03 05:15:00
12:35 AM,37.4,26.6,65,29.87,10.0,Calm,Calm,-,N/A,,Overcast,0,2013-03-03 05:35:00
12:55 AM,37.4,26.6,65,29.87,10.0,Calm,Calm,-,N/A,,Overcast,0,2013-03-03 05:55:00
1:15 AM,37.4,24.8,60,29.87,10.0,North,5.8,-,N/A,,Overcast,350,2013-03-03 06:15:00
1:35 AM,37.4,23.0,56,29.87,10.0,NNW,4.6,-,N/A,,Overcast,330,2013-03-03 06:35:00
1:55 AM,37.4,21.2,52,29.87,10.0,NNW,6.9,-,N/A,,Overcast,340,2013-03-03 06:55:00
2:15 AM,37.4,21.2,52,29.87,10.0,NNW,9.2,-,N/A,,Overcast,330,2013-03-03 07:15:00
2:35 AM,35.6,21.2,56,29.86,10.0,NW,8.1,-,N/A,,Overcast,310,2013-03-03 07:35:00
2:55 AM,35.6,21.2,56,29.86,10.0,North,4.6,-,N/A,,Overcast,350,2013-03-03 07:55:00
3:15 AM,35.6,21.2,56,29.86,10.0,NNW,8.1,-,N/A,,Overcast,340,2013-03-03 08:15:00
3:35 AM,35.6,21.2,56,29.86,10.0,NNW,5.8,-,N/A,,Overcast,340,2013-03-03 08:35:00
3:55 AM,35.6,21.2,56,29.86,10.0,NNW,6.9,-,N/A,,Overcast,340,2013-03-03 08:55:00
4:15 AM,35.6,21.2,56,29.86,10.0,NNW,4.6,-,N/A,,Overcast,340,2013-03-03 09:15:00
4:35 AM,35.6,21.2,56,29.86,10.0,Calm,Calm,-,N/A,,Overcast,0,2013-03-03 09:35:00
4:55 AM,35.6,21.2,56,29.87,10.0,Calm,Calm,-,N/A,,Overcast,0,2013-03-03 09:55:00
5:15 AM,33.8,21.2,60,29.87,10.0,NW,4.6,-,N/A,,Mostly Cloudy,310,2013-03-03 10:15:00
5:35 AM,33.8,21.2,60,29.87,10.0,WNW,6.9,-,N/A,,Clear,300,2013-03-03 10:35:00
5:55 AM,33.8,21.2,60,29.88,10.0,NW,5.8,-,N/A,,Clear,310,2013-03-03 10:55:00
6:15 AM,32.0,21.2,64,29.88,10.0,WNW,4.6,-,N/A,,Clear,300,2013-03-03 11:15:00
6:35 AM,30.2,21.2,69,29.88,10.0,West,4.6,-,N/A,,Clear,280,2013-03-03 11:35:00
7:15 AM,32.0,23.0,69,29.89,10.0,West,5.8,-,N/A,,Clear,270,2013-03-03 12:15:00
7:35 AM,33.8,21.2,60,29.90,10.0,WNW,9.2,-,N/A,,Clear,300,2013-03-03 12:35:00
7:55 AM,33.8,21.2,60,29.90,10.0,WNW,6.9,-,N/A,,Clear,300,2013-03-03 12:55:00
8:15 AM,35.6,21.2,56,29.91,10.0,NW,10.4,-,N/A,,Clear,310,2013-03-03 13:15:00
8:35 AM,35.6,21.2,56,29.91,10.0,NW,10.4,18.4,N/A,,Mostly Cloudy,320,2013-03-03 13:35:00
8:55 AM,37.4,21.2,52,29.91,10.0,NNW,11.5,16.1,N/A,,Overcast,330,2013-03-03 13:55:00
9:15 AM,37.4,19.4,48,29.91,10.0,NNW,11.5,19.6,N/A,,Scattered Clouds,330,2013-03-03 14:15:00
9:35 AM,37.4,19.4,48,29.90,10.0,NW,12.7,-,N/A,,Clear,320,2013-03-03 14:35:00
9:55 AM,37.4,19.4,48,29.89,10.0,NNW,11.5,18.4,N/A,,Scattered Clouds,340,2013-03-03 14:55:00
10:15 AM,37.4,19.4,48,29.89,10.0,NNW,11.5,18.4,N/A,,Scattered Clouds,330,2013-03-03 15:15:00
10:35 AM,37.4,19.4,48,29.89,10.0,NW,11.5,19.6,N/A,,Mostly Cloudy,320,2013-03-03 15:35:00
10:55 AM,39.2,19.4,45,29.89,10.0,NW,16.1,21.9,N/A,,Mostly Cloudy,320,2013-03-03 15:55:00
11:15 AM,39.2,21.2,49,29.89,10.0,NNW,12.7,18.4,N/A,,Overcast,330,2013-03-03 16:15:00
11:35 AM,39.2,21.2,49,29.89,10.0,NW,12.7,18.4,N/A,,Overcast,320,2013-03-03 16:35:00
11:55 AM,39.2,21.2,49,29.89,10.0,NNW,8.1,-,N/A,,Overcast,330,2013-03-03 16:55:00
12:15 PM,39.2,21.2,49,29.88,10.0,NW,6.9,-,N/A,,Overcast,310,2013-03-03 17:15:00
12:35 PM,39.2,19.4,45,29.87,10.0,NW,10.4,-,N/A,,Overcast,320,2013-03-03 17:35:00
12:55 PM,39.2,19.4,45,29.86,10.0,WNW,10.4,-,N/A,,Overcast,300,2013-03-03 17:55:00
1:15 PM,41.0,19.4,42,29.85,10.0,West,16.1,19.6,N/A,,Overcast,270,2013-03-03 18:15:00
1:35 PM,41.0,19.4,42,29.85,10.0,NW,10.4,16.1,N/A,,Overcast,310,2013-03-03 18:35:00
1:55 PM,42.8,19.4,39,29.84,10.0,NW,11.5,-,N/A,,Overcast,310,2013-03-03 18:55:00
2:15 PM,44.6,21.2,39,29.83,10.0,West,12.7,19.6,N/A,,Overcast,280,2013-03-03 19:15:00
2:35 PM,44.6,21.2,39,29.82,10.0,West,11.5,20.7,N/A,,Overcast,270,2013-03-03 19:35:00
2:55 PM,44.6,21.2,39,29.81,10.0,West,16.1,19.6,N/A,,Overcast,260,2013-03-03 19:55:00
3:15 PM,44.6,21.2,39,29.81,10.0,West,9.2,23.0,N/A,,Overcast,260,2013-03-03 20:15:00
3:35 PM,44.6,21.2,39,29.81,10.0,WNW,10.4,18.4,N/A,,Mostly Cloudy,300,2013-03-03 20:35:00
3:55 PM,44.6,21.2,39,29.81,10.0,West,13.8,-,N/A,,Scattered Clouds,270,2013-03-03 20:55:00
4:35 PM,46.4,19.4,34,29.81,10.0,West,6.9,-,N/A,,Mostly Cloudy,280,2013-03-03 21:35:00
4:55 PM,44.6,19.4,37,29.81,10.0,NW,9.2,-,N/A,,Scattered Clouds,320,2013-03-03 21:55:00
5:15 PM,42.8,21.2,42,29.82,10.0,North,6.9,-,N/A,,Scattered Clouds,10,2013-03-03 22:15:00
5:35 PM,42.8,21.2,42,29.83,10.0,North,3.5,-,N/A,,Scattered Clouds,360,2013-03-03 22:35:00
5:55 PM,41.0,21.2,45,29.84,10.0,NNE,3.5,-,N/A,,Clear,20,2013-03-03 22:55:00
6:15 PM,41.0,21.2,45,29.84,10.0,Calm,Calm,-,N/A,,Clear,0,2013-03-03 23:15:00
6:35 PM,37.4,24.8,60,29.85,10.0,Calm,Calm,-,N/A,,Scattered Clouds,0,2013-03-03 23:35:00
6:55 PM,35.6,26.6,70,29.85,10.0,Calm,Calm,-,N/A,,Clear,0,2013-03-03 23:55:00
7:35 PM,33.8,28.4,81,29.87,10.0,Calm,Calm,-,N/A,,Clear,0,2013-03-04 00:35:00
7:55 PM,33.8,26.6,75,29.87,10.0,Calm,Calm,-,N/A,,Clear,0,2013-03-04 00:55:00
8:15 PM,32.0,26.6,80,29.88,10.0,Calm,Calm,-,N/A,,Clear,0,2013-03-04 01:15:00
8:35 PM,30.2,28.4,93,29.88,10.0,Calm,Calm,-,N/A,,Clear,0,2013-03-04 01:35:00
8:55 PM,30.2,24.8,80,29.89,10.0,Calm,Calm,-,N/A,,Mostly Cloudy,0,2013-03-04 01:55:00
9:15 PM,32.0,26.6,80,29.89,10.0,Calm,Calm,-,N/A,,Overcast,0,2013-03-04 02:15:00
9:35 PM,32.0,26.6,80,29.89,10.0,Calm,Calm,-,N/A,,Overcast,0,2013-03-04 02:35:00
9:55 PM,30.2,28.4,93,29.90,10.0,Calm,Calm,-,N/A,,Overcast,0,2013-03-04 02:55:00
10:15 PM,32.0,28.4,87,29.91,10.0,Calm,Calm,-,N/A,,Overcast,0,2013-03-04 03:15:00
10:35 PM,33.8,28.4,81,29.91,10.0,Calm,Calm,-,N/A,,Overcast,0,2013-03-04 03:35:00
10:55 PM,35.6,24.8,65,29.92,10.0,NNW,4.6,-,N/A,,Overcast,330,2013-03-04 03:55:00
11:15 PM,37.4,24.8,60,29.92,10.0,NNW,4.6,-,N/A,,Overcast,330,2013-03-04 04:15:00
11:35 PM,37.4,21.2,52,29.92,10.0,North,5.8,-,N/A,,Overcast,350,2013-03-04 04:35:00
11:55 PM,37.4,21.2,52,29.92,10.0,NNW,4.6,-,N/A,,Mostly Cloudy,340,2013-03-04 04:55:00